Alexander 3 — SW6137 — position and weather

sailwx.info

Track history (hours):
 
Tides and Currents Weather Stations Pressure Air Temp Water Temp Dewpoint Dewpoint Depression Visibility Wind Speed Wind Dir Waves Ship Positions

Alexander 3

Last reported at 2017-Apr-29 11:53 UTC. Time now 2017-Apr-30 16:55 UTC.
Position N 37°56' E 023°37'.

Length 28 m; draft 5.6 m.

Type: Tug. MMSI: 240733000.

Date/timePositionNaut miles runAvg speedWind from/ knotsBaromVisibWave heightAir tempDewpointWater temp
2017-Apr-29 11:53N 37°56' E 023°37'0 0.0
2017-Apr-29 11:31N 37°56' E 023°37'1 2.9
2017-Apr-29 11:00N 37°57' E 023°36'0 0.0
2017-Apr-29 10:30N 37°57' E 023°36'0 0.0
2017-Apr-29 10:00N 37°57' E 023°36'0 0.1
2017-Apr-29 09:31N 37°57' E 023°36'1 1.1
2017-Apr-29 09:01N 37°57' E 023°36'1 1.9
2017-Apr-29 08:30N 37°57' E 023°37'0 0.7
2017-Apr-29 08:00N 37°57' E 023°36'0 0.5
2017-Apr-29 07:31N 37°57' E 023°36'2 4.2
2017-Apr-29 07:00N 37°58' E 023°34'0 0.0
2017-Apr-29 06:30N 37°58' E 023°34'0 0.0
2017-Apr-29 06:00N 37°58' E 023°34'1 1.2
2017-Apr-29 05:30N 37°57' E 023°34'3 5.2
2017-Apr-29 05:00N 37°56' E 023°37'0 0.0
2017-Apr-29 04:30N 37°56' E 023°37'0 0.0
2017-Apr-29 04:00N 37°56' E 023°37'0 0.0
2017-Apr-29 03:30N 37°56' E 023°37'0 0.0
2017-Apr-29 03:00N 37°56' E 023°37'0 0.0
2017-Apr-28 10:52N 37°56' E 023°37'0 0.0
2017-Apr-28 10:30N 37°56' E 023°37'0 0.0
2017-Apr-28 10:00N 37°56' E 023°37'0 0.0
2017-Apr-28 09:30N 37°56' E 023°37'0 0.0
2017-Apr-28 09:00N 37°56' E 023°37'1 1.5
2017-Apr-28 08:30N 37°56' E 023°38'0 0.1
2017-Apr-28 08:00N 37°56' E 023°38'1 2.2
2017-Apr-28 07:30N 37°56' E 023°37'1 2.1
2017-Apr-28 07:00N 37°57' E 023°37'1 2.2
2017-Apr-28 06:30N 37°57' E 023°35'2 3.7
2017-Apr-28 06:01N 37°56' E 023°35'1 1.5
2017-Apr-28 05:31N 37°56' E 023°36'1 2.9
2017-Apr-28 05:00N 37°56' E 023°37'0 0.0
2017-Apr-28 04:30N 37°56' E 023°37'0 0.0
2017-Apr-28 04:00N 37°56' E 023°37'0 0.0
2017-Apr-28 03:30N 37°56' E 023°37'0 0.0
2017-Apr-28 03:00N 37°56' E 023°37'0 0.0
2017-Apr-27 10:48N 37°56' E 023°37'0 0.0
2017-Apr-27 10:30N 37°56' E 023°37'0 0.0
2017-Apr-27 10:00N 37°56' E 023°37'0 0.0
2017-Apr-27 09:30N 37°56' E 023°37'0 0.0
2017-Apr-27 09:00N 37°56' E 023°37'0 0.0
2017-Apr-27 08:31N 37°56' E 023°37'1 1.3
2017-Apr-27 08:00N 37°57' E 023°38'0 0.0
2017-Apr-27 07:30N 37°57' E 023°38'1 1.3
2017-Apr-27 07:00N 37°56' E 023°37'0 0.0
2017-Apr-27 06:30N 37°56' E 023°37'0 0.0
2017-Apr-27 06:01N 37°56' E 023°37'0 0.0
2017-Apr-27 05:30N 37°56' E 023°37'0 0.3
2017-Apr-27 04:59N 37°56' E 023°37'1 1.3
2017-Apr-27 04:30N 37°56' E 023°37'1 2.8
2017-Apr-27 04:00N 37°56' E 023°38'1 1.6
2017-Apr-27 03:30N 37°56' E 023°37'0 0.1
2017-Apr-27 03:00N 37°56' E 023°37'0 0.0
2017-Apr-27 02:30N 37°56' E 023°37'0 0.0
2017-Apr-27 02:00N 37°56' E 023°37'0 0.0
2017-Apr-27 01:30N 37°56' E 023°37'0 0.0
2017-Apr-27 01:00N 37°56' E 023°37'0 0.0
2017-Apr-27 00:30N 37°56' E 023°37'0 0.0
2017-Apr-27 00:00N 37°56' E 023°37'0 0.0
2017-Apr-26 23:30N 37°56' E 023°37'0 0.0
2017-Apr-26 23:00N 37°56' E 023°37'0 0.0
2017-Apr-26 22:30N 37°56' E 023°37'0 0.0
2017-Apr-26 22:00N 37°56' E 023°37'0 0.0
2017-Apr-26 21:30N 37°56' E 023°37'0 0.0
2017-Apr-26 21:00N 37°56' E 023°37'0 0.0
2017-Apr-26 20:30N 37°56' E 023°37'0 0.0
2017-Apr-26 20:00N 37°56' E 023°37'0 0.0
2017-Apr-26 19:30N 37°56' E 023°37'0 0.0
2017-Apr-26 19:00N 37°56' E 023°37'2 4.9
2017-Apr-26 18:30N 37°57' E 023°35'1 1.4
2017-Apr-26 18:00N 37°57' E 023°35'1 1.8
2017-Apr-26 17:30N 37°57' E 023°36'0 0.0
2017-Apr-26 17:00N 37°57' E 023°36'0 0.0
2017-Apr-26 16:30N 37°57' E 023°36'0 0.0
2017-Apr-26 16:00N 37°57' E 023°36'0 0.0
2017-Apr-26 15:30N 37°57' E 023°36'0 0.0
2017-Apr-26 15:01N 37°57' E 023°36'0 0.0
2017-Apr-26 14:30N 37°57' E 023°36'0 0.0
2017-Apr-26 13:30N 37°57' E 023°36'0 0.0
2017-Apr-26 13:00N 37°57' E 023°36'0 0.0
2017-Apr-26 12:30N 37°57' E 023°36'0 0.0
2017-Apr-26 12:00N 37°57' E 023°36'0 0.0
2017-Apr-26 11:30N 37°57' E 023°36'0 0.0
2017-Apr-26 11:00N 37°57' E 023°36'0 0.0
2017-Apr-26 10:30N 37°57' E 023°36'0 0.0
2017-Apr-26 10:01N 37°57' E 023°36'1 1.5
2017-Apr-26 09:30N 37°57' E 023°37'0 0.0
2017-Apr-26 09:00N 37°57' E 023°37'1 2.1
2017-Apr-26 08:30N 37°57' E 023°35'1 2.5
2017-Apr-26 08:01N 37°56' E 023°35'0 0.8
2017-Apr-26 07:31N 37°56' E 023°35'0 0.1
2017-Apr-26 07:01N 37°56' E 023°35'0 0.2
2017-Apr-26 06:30N 37°56' E 023°35'2 3.2
2017-Apr-26 06:00N 37°57' E 023°36'0 0.7
2017-Apr-26 05:30N 37°57' E 023°35'2 3.4
2017-Apr-26 05:01N 37°56' E 023°36'0 0.3
2017-Apr-26 04:30N 37°56' E 023°36'2 3.1
2017-Apr-26 04:00N 37°56' E 023°38'1 1.5
2017-Apr-26 03:30N 37°56' E 023°37'0 0.0
2017-Apr-26 03:00N 37°56' E 023°37'0 0.0
2017-Apr-24 12:27N 37°56' E 023°37'3 7.1
2017-Apr-24 12:00N 37°57' E 023°34'5 9.2
2017-Apr-24 11:31N 38°01' E 023°31'1 1.2
2017-Apr-24 11:01N 38°02' E 023°31'0 0.1
2017-Apr-24 10:30N 38°02' E 023°31'0 0.5
2017-Apr-24 10:00N 38°02' E 023°31'0 0.0
2017-Apr-24 09:30N 38°02' E 023°31'0 0.0
2017-Apr-24 09:01N 38°02' E 023°31'0 0.0
2017-Apr-24 08:31N 38°02' E 023°31'0 0.0
2017-Apr-24 08:01N 38°02' E 023°31'0 0.0
2017-Apr-24 07:31N 38°02' E 023°31'0 0.0
2017-Apr-24 07:01N 38°02' E 023°31'0 0.0
2017-Apr-24 06:30N 38°02' E 023°31'0 0.0
2017-Apr-24 06:00N 38°02' E 023°31'0 0.0
2017-Apr-24 05:31N 38°02' E 023°31'0 0.0
2017-Apr-24 05:01N 38°02' E 023°31'0 0.0
2017-Apr-24 04:31N 38°02' E 023°31'0 0.0
2017-Apr-24 04:01N 38°02' E 023°31'0 0.0
2017-Apr-24 03:31N 38°02' E 023°31'0 0.0
2017-Apr-24 03:01N 38°02' E 023°31'0 0.0
2017-Apr-24 02:31N 38°02' E 023°31'0 0.0
2017-Apr-24 02:00N 38°02' E 023°31'0 0.0
2017-Apr-24 01:30N 38°02' E 023°31'0 0.0
2017-Apr-24 01:01N 38°02' E 023°31'0 0.0
2017-Apr-24 00:31N 38°02' E 023°31'0 0.0
2017-Apr-24 00:00N 38°02' E 023°31'0 0.0
2017-Apr-23 23:31N 38°02' E 023°31'0 0.0
2017-Apr-23 23:01N 38°02' E 023°31'0 0.0
2017-Apr-23 22:31N 38°02' E 023°31'0 0.0
2017-Apr-23 22:01N 38°02' E 023°31'0 0.0
2017-Apr-23 21:31N 38°02' E 023°31'0 0.0
2017-Apr-23 21:00N 38°02' E 023°31'0 0.0
2017-Apr-23 20:31N 38°02' E 023°31'0 0.0
2017-Apr-23 20:00N 38°02' E 023°31'0 0.0
2017-Apr-23 19:30N 38°02' E 023°31'0 0.0
2017-Apr-23 19:01N 38°02' E 023°31'0 0.0
2017-Apr-23 18:30N 38°02' E 023°31'0 0.0
2017-Apr-23 18:01N 38°02' E 023°31'0 0.0
2017-Apr-23 17:31N 38°02' E 023°31'0 0.0
2017-Apr-23 17:00N 38°02' E 023°31'0 0.0
2017-Apr-23 16:31N 38°02' E 023°31'0 0.0
2017-Apr-23 16:01N 38°02' E 023°31'0 0.0
2017-Apr-23 15:31N 38°02' E 023°31'0 0.0
2017-Apr-23 15:01N 38°02' E 023°31'0 0.0
2017-Apr-23 14:01N 38°02' E 023°31'0 0.0
2017-Apr-23 13:31N 38°02' E 023°31'0 0.0
2017-Apr-23 13:01N 38°02' E 023°31'0 0.0
2017-Apr-23 12:30N 38°02' E 023°31'0 0.0
2017-Apr-23 12:00N 38°02' E 023°31'0 0.0
2017-Apr-23 11:30N 38°02' E 023°31'0 0.0
2017-Apr-23 11:01N 38°02' E 023°31'0 0.0
2017-Apr-23 10:30N 38°02' E 023°31'0 0.0
2017-Apr-23 10:01N 38°02' E 023°31'0 0.0
2017-Apr-23 09:31N 38°02' E 023°31'0 0.0
2017-Apr-23 09:01N 38°02' E 023°31'0 0.0
2017-Apr-23 08:31N 38°02' E 023°31'0 0.0
2017-Apr-23 08:01N 38°02' E 023°31'0 0.0
2017-Apr-23 07:30N 38°02' E 023°31'0 0.0
2017-Apr-23 07:01N 38°02' E 023°31'0 0.0
2017-Apr-23 06:30N 38°02' E 023°31'0 0.0
2017-Apr-23 06:00N 38°02' E 023°31'0 0.0
2017-Apr-23 05:30N 38°02' E 023°31'0 0.0
2017-Apr-23 05:01N 38°02' E 023°31'0 0.0
2017-Apr-23 04:31N 38°02' E 023°31'0 0.0
2017-Apr-23 04:01N 38°02' E 023°31'0 0.0
2017-Apr-23 03:31N 38°02' E 023°31'0 0.0
2017-Apr-23 03:01N 38°02' E 023°31'0 0.0
2017-Apr-23 02:31N 38°02' E 023°31'0 0.0
2017-Apr-23 02:01N 38°02' E 023°31'0 0.0
2017-Apr-23 01:30N 38°02' E 023°31'0 0.0
2017-Apr-23 01:01N 38°02' E 023°31'0 0.0
2017-Apr-23 00:31N 38°02' E 023°31'0 0.0
2017-Apr-23 00:01N 38°02' E 023°31'0 0.0
2017-Apr-22 23:31N 38°02' E 023°31'0 0.0
2017-Apr-22 23:00N 38°02' E 023°31'0 0.0
2017-Apr-22 22:30N 38°02' E 023°31'0 0.0
2017-Apr-22 22:00N 38°02' E 023°31'0 0.0
2017-Apr-22 21:30N 38°02' E 023°31'0 0.0
2017-Apr-22 21:00N 38°02' E 023°31'0 0.0
2017-Apr-22 20:30N 38°02' E 023°31'0 0.0
2017-Apr-22 20:01N 38°02' E 023°31'0 0.0
2017-Apr-22 19:30N 38°02' E 023°31'0 0.0
2017-Apr-22 19:00N 38°02' E 023°31'0 0.0
2017-Apr-22 18:31N 38°02' E 023°31'0 0.0
2017-Apr-22 18:01N 38°02' E 023°31'0 0.0
2017-Apr-22 17:31N 38°02' E 023°31'0 0.0
2017-Apr-22 17:01N 38°02' E 023°31'0 0.0
2017-Apr-22 16:31N 38°02' E 023°31'0 0.0
2017-Apr-22 16:01N 38°02' E 023°31'0 0.0
2017-Apr-22 15:31N 38°02' E 023°31'0 0.0
2017-Apr-22 15:00N 38°02' E 023°31'0 0.0
2017-Apr-22 14:31N 38°02' E 023°31'0 0.0
2017-Apr-22 13:31N 38°02' E 023°31'0 0.0
2017-Apr-22 13:01N 38°02' E 023°31'0 0.0
2017-Apr-22 12:31N 38°02' E 023°31'0 0.0
2017-Apr-22 12:00N 38°02' E 023°31'0 0.6
2017-Apr-22 11:31N 38°02' E 023°31'0 0.7
2017-Apr-22 11:00N 38°02' E 023°30'1 2.5
2017-Apr-22 10:31N 38°01' E 023°32'0 0.3
2017-Apr-22 10:01N 38°01' E 023°32'4 8.4
2017-Apr-22 09:30N 37°57' E 023°35'2 3.0
2017-Apr-22 09:01N 37°57' E 023°37'0 0.0
2017-Apr-22 08:31N 37°57' E 023°37'1 2.1
2017-Apr-22 08:00N 37°57' E 023°35'1 2.1
2017-Apr-22 07:31N 37°57' E 023°37'0 0.0
2017-Apr-22 07:01N 37°57' E 023°37'0 0.0
2017-Apr-22 06:31N 37°57' E 023°37'0 0.0
2017-Apr-22 06:01N 37°57' E 023°37'0 0.0
2017-Apr-22 05:31N 37°57' E 023°37'0 0.0
2017-Apr-22 05:01N 37°57' E 023°37'0 0.0
2017-Apr-22 04:31N 37°57' E 023°37'2 3.0
2017-Apr-22 04:01N 37°56' E 023°38'1 1.3
2017-Apr-22 03:31N 37°56' E 023°37'0 0.0
2017-Apr-22 03:01N 37°56' E 023°37'0 0.0
2017-Apr-21 10:54N 37°56' E 023°37'0 0.0
2017-Apr-21 10:31N 37°56' E 023°37'0 0.0
2017-Apr-21 10:00N 37°56' E 023°37'0 0.0
2017-Apr-21 09:30N 37°56' E 023°37'0 0.0
2017-Apr-21 09:01N 37°56' E 023°37'1 1.4
2017-Apr-21 08:30N 37°56' E 023°38'1 1.4
2017-Apr-21 08:01N 37°56' E 023°37'0 0.0
2017-Apr-21 07:30N 37°56' E 023°37'0 0.0
2017-Apr-21 07:01N 37°56' E 023°37'0 0.0
2017-Apr-21 06:31N 37°56' E 023°37'0 0.0
2017-Apr-21 06:01N 37°56' E 023°37'0 0.0
2017-Apr-21 05:31N 37°56' E 023°37'0 0.0
2017-Apr-21 05:01N 37°56' E 023°37'0 0.0
2017-Apr-21 04:31N 37°56' E 023°37'0 0.0
2017-Apr-21 04:00N 37°56' E 023°37'0 0.0
2017-Apr-21 03:30N 37°56' E 023°37'0 0.0
2017-Apr-21 03:00N 37°56' E 023°37'0 0.0
2017-Apr-21 02:30N 37°56' E 023°37'2 4.2
2017-Apr-21 02:00N 37°54' E 023°38'510.6
2017-Apr-21 01:31N 37°49' E 023°40'510.6
2017-Apr-21 01:01N 37°44' E 023°43'510.7
2017-Apr-21 00:30N 37°39' E 023°46'3 0.4
2017-Apr-20 15:38N 37°39' E 023°42'110.9
2017-Apr-20 15:30N 37°41' E 023°41'510.7
2017-Apr-20 15:00N 37°46' E 023°39'611.0
2017-Apr-20 14:31N 37°51' E 023°37'5 5.5
2017-Apr-20 13:31N 37°56' E 023°38'0 0.0
2017-Apr-20 13:01N 37°56' E 023°38'3 5.5
2017-Apr-20 12:31N 37°57' E 023°35'1 1.9
2017-Apr-20 12:00N 37°57' E 023°36'1 1.3
2017-Apr-20 11:31N 37°57' E 023°35'0 0.1
2017-Apr-20 11:01N 37°57' E 023°35'1 1.0
2017-Apr-20 10:31N 37°57' E 023°36'1 1.5
2017-Apr-20 10:01N 37°56' E 023°36'1 2.5
2017-Apr-20 09:30N 37°57' E 023°35'2 3.4
2017-Apr-20 09:01N 37°56' E 023°36'1 1.1
2017-Apr-20 08:30N 37°56' E 023°36'1 2.5
2017-Apr-20 08:01N 37°56' E 023°37'0 0.2
2017-Apr-20 07:30N 37°56' E 023°37'0 0.0
2017-Apr-20 07:00N 37°56' E 023°37'0 0.0
2017-Apr-20 06:30N 37°56' E 023°37'0 0.0
2017-Apr-20 06:00N 37°56' E 023°37'0 0.0
2017-Apr-20 05:31N 37°56' E 023°37'0 0.0
2017-Apr-20 05:01N 37°56' E 023°37'0 0.0
2017-Apr-20 04:30N 37°56' E 023°37'1 1.3
2017-Apr-20 04:01N 37°56' E 023°38'1 1.3
2017-Apr-20 03:31N 37°56' E 023°37'0 0.0
2017-Apr-20 03:01N 37°56' E 023°37'0 0.0
2017-Apr-20 02:30N 37°56' E 023°37'  
Track history (hours):
 
Tides and Currents Weather Stations Pressure Air Temp Water Temp Dewpoint Dewpoint Depression Visibility Wind Speed Wind Dir Waves Ship Positions

Alexander 3

Last reported at 2017-Apr-29 11:53 UTC. Time now 2017-Apr-30 16:55 UTC.
Position N 37°56' E 023°37'.

Length 28 m; draft 5.6 m.

Type: Tug. MMSI: 240733000.

Date/timePositionNaut miles runAvg speedWind from/ knotsBaromVisibWave heightAir tempDewpointWater temp
2017-Apr-29 11:53N 37°56' E 023°37'0 0.0
2017-Apr-29 11:31N 37°56' E 023°37'1 2.9
2017-Apr-29 11:00N 37°57' E 023°36'0 0.0
2017-Apr-29 10:30N 37°57' E 023°36'0 0.0
2017-Apr-29 10:00N 37°57' E 023°36'0 0.1
2017-Apr-29 09:31N 37°57' E 023°36'1 1.1
2017-Apr-29 09:01N 37°57' E 023°36'1 1.9
2017-Apr-29 08:30N 37°57' E 023°37'0 0.7
2017-Apr-29 08:00N 37°57' E 023°36'0 0.5
2017-Apr-29 07:31N 37°57' E 023°36'2 4.2
2017-Apr-29 07:00N 37°58' E 023°34'0 0.0
2017-Apr-29 06:30N 37°58' E 023°34'0 0.0
2017-Apr-29 06:00N 37°58' E 023°34'1 1.2
2017-Apr-29 05:30N 37°57' E 023°34'3 5.2
2017-Apr-29 05:00N 37°56' E 023°37'0 0.0
2017-Apr-29 04:30N 37°56' E 023°37'0 0.0
2017-Apr-29 04:00N 37°56' E 023°37'0 0.0
2017-Apr-29 03:30N 37°56' E 023°37'0 0.0
2017-Apr-29 03:00N 37°56' E 023°37'0 0.0
2017-Apr-28 10:52N 37°56' E 023°37'0 0.0
2017-Apr-28 10:30N 37°56' E 023°37'0 0.0
2017-Apr-28 10:00N 37°56' E 023°37'0 0.0
2017-Apr-28 09:30N 37°56' E 023°37'0 0.0
2017-Apr-28 09:00N 37°56' E 023°37'1 1.5
2017-Apr-28 08:30N 37°56' E 023°38'0 0.1
2017-Apr-28 08:00N 37°56' E 023°38'1 2.2
2017-Apr-28 07:30N 37°56' E 023°37'1 2.1
2017-Apr-28 07:00N 37°57' E 023°37'1 2.2
2017-Apr-28 06:30N 37°57' E 023°35'2 3.7
2017-Apr-28 06:01N 37°56' E 023°35'1 1.5
2017-Apr-28 05:31N 37°56' E 023°36'1 2.9
2017-Apr-28 05:00N 37°56' E 023°37'0 0.0
2017-Apr-28 04:30N 37°56' E 023°37'0 0.0
2017-Apr-28 04:00N 37°56' E 023°37'0 0.0
2017-Apr-28 03:30N 37°56' E 023°37'0 0.0
2017-Apr-28 03:00N 37°56' E 023°37'0 0.0
2017-Apr-27 10:48N 37°56' E 023°37'0 0.0
2017-Apr-27 10:30N 37°56' E 023°37'0 0.0
2017-Apr-27 10:00N 37°56' E 023°37'0 0.0
2017-Apr-27 09:30N 37°56' E 023°37'0 0.0
2017-Apr-27 09:00N 37°56' E 023°37'0 0.0
2017-Apr-27 08:31N 37°56' E 023°37'1 1.3
2017-Apr-27 08:00N 37°57' E 023°38'0 0.0
2017-Apr-27 07:30N 37°57' E 023°38'1 1.3
2017-Apr-27 07:00N 37°56' E 023°37'0 0.0
2017-Apr-27 06:30N 37°56' E 023°37'0 0.0
2017-Apr-27 06:01N 37°56' E 023°37'0 0.0
2017-Apr-27 05:30N 37°56' E 023°37'0 0.3
2017-Apr-27 04:59N 37°56' E 023°37'1 1.3
2017-Apr-27 04:30N 37°56' E 023°37'1 2.8
2017-Apr-27 04:00N 37°56' E 023°38'1 1.6
2017-Apr-27 03:30N 37°56' E 023°37'0 0.1
2017-Apr-27 03:00N 37°56' E 023°37'0 0.0
2017-Apr-27 02:30N 37°56' E 023°37'0 0.0
2017-Apr-27 02:00N 37°56' E 023°37'0 0.0
2017-Apr-27 01:30N 37°56' E 023°37'0 0.0
2017-Apr-27 01:00N 37°56' E 023°37'0 0.0
2017-Apr-27 00:30N 37°56' E 023°37'0 0.0
2017-Apr-27 00:00N 37°56' E 023°37'0 0.0
2017-Apr-26 23:30N 37°56' E 023°37'0 0.0
2017-Apr-26 23:00N 37°56' E 023°37'0 0.0
2017-Apr-26 22:30N 37°56' E 023°37'0 0.0
2017-Apr-26 22:00N 37°56' E 023°37'0 0.0
2017-Apr-26 21:30N 37°56' E 023°37'0 0.0
2017-Apr-26 21:00N 37°56' E 023°37'0 0.0
2017-Apr-26 20:30N 37°56' E 023°37'0 0.0
2017-Apr-26 20:00N 37°56' E 023°37'0 0.0
2017-Apr-26 19:30N 37°56' E 023°37'0 0.0
2017-Apr-26 19:00N 37°56' E 023°37'2 4.9
2017-Apr-26 18:30N 37°57' E 023°35'1 1.4
2017-Apr-26 18:00N 37°57' E 023°35'1 1.8
2017-Apr-26 17:30N 37°57' E 023°36'0 0.0
2017-Apr-26 17:00N 37°57' E 023°36'0 0.0
2017-Apr-26 16:30N 37°57' E 023°36'0 0.0
2017-Apr-26 16:00N 37°57' E 023°36'0 0.0
2017-Apr-26 15:30N 37°57' E 023°36'0 0.0
2017-Apr-26 15:01N 37°57' E 023°36'0 0.0
2017-Apr-26 14:30N 37°57' E 023°36'0 0.0
2017-Apr-26 13:30N 37°57' E 023°36'0 0.0
2017-Apr-26 13:00N 37°57' E 023°36'0 0.0
2017-Apr-26 12:30N 37°57' E 023°36'0 0.0
2017-Apr-26 12:00N 37°57' E 023°36'0 0.0
2017-Apr-26 11:30N 37°57' E 023°36'0 0.0
2017-Apr-26 11:00N 37°57' E 023°36'0 0.0
2017-Apr-26 10:30N 37°57' E 023°36'0 0.0
2017-Apr-26 10:01N 37°57' E 023°36'1 1.5
2017-Apr-26 09:30N 37°57' E 023°37'0 0.0
2017-Apr-26 09:00N 37°57' E 023°37'1 2.1
2017-Apr-26 08:30N 37°57' E 023°35'1 2.5
2017-Apr-26 08:01N 37°56' E 023°35'0 0.8
2017-Apr-26 07:31N 37°56' E 023°35'0 0.1
2017-Apr-26 07:01N 37°56' E 023°35'0 0.2
2017-Apr-26 06:30N 37°56' E 023°35'2 3.2
2017-Apr-26 06:00N 37°57' E 023°36'0 0.7
2017-Apr-26 05:30N 37°57' E 023°35'2 3.4
2017-Apr-26 05:01N 37°56' E 023°36'0 0.3
2017-Apr-26 04:30N 37°56' E 023°36'2 3.1
2017-Apr-26 04:00N 37°56' E 023°38'1 1.5
2017-Apr-26 03:30N 37°56' E 023°37'0 0.0
2017-Apr-26 03:00N 37°56' E 023°37'0 0.0
2017-Apr-24 12:27N 37°56' E 023°37'3 7.1
2017-Apr-24 12:00N 37°57' E 023°34'5 9.2
2017-Apr-24 11:31N 38°01' E 023°31'1 1.2
2017-Apr-24 11:01N 38°02' E 023°31'0 0.1
2017-Apr-24 10:30N 38°02' E 023°31'0 0.5
2017-Apr-24 10:00N 38°02' E 023°31'0 0.0
2017-Apr-24 09:30N 38°02' E 023°31'0 0.0
2017-Apr-24 09:01N 38°02' E 023°31'0 0.0
2017-Apr-24 08:31N 38°02' E 023°31'0 0.0
2017-Apr-24 08:01N 38°02' E 023°31'0 0.0
2017-Apr-24 07:31N 38°02' E 023°31'0 0.0
2017-Apr-24 07:01N 38°02' E 023°31'0 0.0
2017-Apr-24 06:30N 38°02' E 023°31'0 0.0
2017-Apr-24 06:00N 38°02' E 023°31'0 0.0
2017-Apr-24 05:31N 38°02' E 023°31'0 0.0
2017-Apr-24 05:01N 38°02' E 023°31'0 0.0
2017-Apr-24 04:31N 38°02' E 023°31'0 0.0
2017-Apr-24 04:01N 38°02' E 023°31'0 0.0
2017-Apr-24 03:31N 38°02' E 023°31'0 0.0
2017-Apr-24 03:01N 38°02' E 023°31'0 0.0
2017-Apr-24 02:31N 38°02' E 023°31'0 0.0
2017-Apr-24 02:00N 38°02' E 023°31'0 0.0
2017-Apr-24 01:30N 38°02' E 023°31'0 0.0
2017-Apr-24 01:01N 38°02' E 023°31'0 0.0
2017-Apr-24 00:31N 38°02' E 023°31'0 0.0
2017-Apr-24 00:00N 38°02' E 023°31'0 0.0
2017-Apr-23 23:31N 38°02' E 023°31'0 0.0
2017-Apr-23 23:01N 38°02' E 023°31'0 0.0
2017-Apr-23 22:31N 38°02' E 023°31'0 0.0
2017-Apr-23 22:01N 38°02' E 023°31'0 0.0
2017-Apr-23 21:31N 38°02' E 023°31'0 0.0
2017-Apr-23 21:00N 38°02' E 023°31'0 0.0
2017-Apr-23 20:31N 38°02' E 023°31'0 0.0
2017-Apr-23 20:00N 38°02' E 023°31'0 0.0
2017-Apr-23 19:30N 38°02' E 023°31'0 0.0
2017-Apr-23 19:01N 38°02' E 023°31'0 0.0
2017-Apr-23 18:30N 38°02' E 023°31'0 0.0
2017-Apr-23 18:01N 38°02' E 023°31'0 0.0
2017-Apr-23 17:31N 38°02' E 023°31'0 0.0
2017-Apr-23 17:00N 38°02' E 023°31'0 0.0
2017-Apr-23 16:31N 38°02' E 023°31'0 0.0
2017-Apr-23 16:01N 38°02' E 023°31'0 0.0
2017-Apr-23 15:31N 38°02' E 023°31'0 0.0
2017-Apr-23 15:01N 38°02' E 023°31'0 0.0
2017-Apr-23 14:01N 38°02' E 023°31'0 0.0
2017-Apr-23 13:31N 38°02' E 023°31'0 0.0
2017-Apr-23 13:01N 38°02' E 023°31'0 0.0
2017-Apr-23 12:30N 38°02' E 023°31'0 0.0
2017-Apr-23 12:00N 38°02' E 023°31'0 0.0
2017-Apr-23 11:30N 38°02' E 023°31'0 0.0
2017-Apr-23 11:01N 38°02' E 023°31'0 0.0
2017-Apr-23 10:30N 38°02' E 023°31'0 0.0
2017-Apr-23 10:01N 38°02' E 023°31'0 0.0
2017-Apr-23 09:31N 38°02' E 023°31'0 0.0
2017-Apr-23 09:01N 38°02' E 023°31'0 0.0
2017-Apr-23 08:31N 38°02' E 023°31'0 0.0
2017-Apr-23 08:01N 38°02' E 023°31'0 0.0
2017-Apr-23 07:30N 38°02' E 023°31'0 0.0
2017-Apr-23 07:01N 38°02' E 023°31'0 0.0
2017-Apr-23 06:30N 38°02' E 023°31'0 0.0
2017-Apr-23 06:00N 38°02' E 023°31'0 0.0
2017-Apr-23 05:30N 38°02' E 023°31'0 0.0
2017-Apr-23 05:01N 38°02' E 023°31'0 0.0
2017-Apr-23 04:31N 38°02' E 023°31'0 0.0
2017-Apr-23 04:01N 38°02' E 023°31'0 0.0
2017-Apr-23 03:31N 38°02' E 023°31'0 0.0
2017-Apr-23 03:01N 38°02' E 023°31'0 0.0
2017-Apr-23 02:31N 38°02' E 023°31'0 0.0
2017-Apr-23 02:01N 38°02' E 023°31'0 0.0
2017-Apr-23 01:30N 38°02' E 023°31'0 0.0
2017-Apr-23 01:01N 38°02' E 023°31'0 0.0
2017-Apr-23 00:31N 38°02' E 023°31'0 0.0
2017-Apr-23 00:01N 38°02' E 023°31'0 0.0
2017-Apr-22 23:31N 38°02' E 023°31'0 0.0
2017-Apr-22 23:00N 38°02' E 023°31'0 0.0
2017-Apr-22 22:30N 38°02' E 023°31'0 0.0
2017-Apr-22 22:00N 38°02' E 023°31'0 0.0
2017-Apr-22 21:30N 38°02' E 023°31'0 0.0
2017-Apr-22 21:00N 38°02' E 023°31'0 0.0
2017-Apr-22 20:30N 38°02' E 023°31'0 0.0
2017-Apr-22 20:01N 38°02' E 023°31'0 0.0
2017-Apr-22 19:30N 38°02' E 023°31'0 0.0
2017-Apr-22 19:00N 38°02' E 023°31'0 0.0
2017-Apr-22 18:31N 38°02' E 023°31'0 0.0
2017-Apr-22 18:01N 38°02' E 023°31'0 0.0
2017-Apr-22 17:31N 38°02' E 023°31'0 0.0
2017-Apr-22 17:01N 38°02' E 023°31'0 0.0
2017-Apr-22 16:31N 38°02' E 023°31'0 0.0
2017-Apr-22 16:01N 38°02' E 023°31'0 0.0
2017-Apr-22 15:31N 38°02' E 023°31'0 0.0
2017-Apr-22 15:00N 38°02' E 023°31'0 0.0
2017-Apr-22 14:31N 38°02' E 023°31'0 0.0
2017-Apr-22 13:31N 38°02' E 023°31'0 0.0
2017-Apr-22 13:01N 38°02' E 023°31'0 0.0
2017-Apr-22 12:31N 38°02' E 023°31'0 0.0
2017-Apr-22 12:00N 38°02' E 023°31'0 0.6
2017-Apr-22 11:31N 38°02' E 023°31'0 0.7
2017-Apr-22 11:00N 38°02' E 023°30'1 2.5
2017-Apr-22 10:31N 38°01' E 023°32'0 0.3
2017-Apr-22 10:01N 38°01' E 023°32'4 8.4
2017-Apr-22 09:30N 37°57' E 023°35'2 3.0
2017-Apr-22 09:01N 37°57' E 023°37'0 0.0
2017-Apr-22 08:31N 37°57' E 023°37'1 2.1
2017-Apr-22 08:00N 37°57' E 023°35'1 2.1
2017-Apr-22 07:31N 37°57' E 023°37'0 0.0
2017-Apr-22 07:01N 37°57' E 023°37'0 0.0
2017-Apr-22 06:31N 37°57' E 023°37'0 0.0
2017-Apr-22 06:01N 37°57' E 023°37'0 0.0
2017-Apr-22 05:31N 37°57' E 023°37'0 0.0
2017-Apr-22 05:01N 37°57' E 023°37'0 0.0
2017-Apr-22 04:31N 37°57' E 023°37'2 3.0
2017-Apr-22 04:01N 37°56' E 023°38'1 1.3
2017-Apr-22 03:31N 37°56' E 023°37'0 0.0
2017-Apr-22 03:01N 37°56' E 023°37'0 0.0
2017-Apr-21 10:54N 37°56' E 023°37'0 0.0
2017-Apr-21 10:31N 37°56' E 023°37'0 0.0
2017-Apr-21 10:00N 37°56' E 023°37'0 0.0
2017-Apr-21 09:30N 37°56' E 023°37'0 0.0
2017-Apr-21 09:01N 37°56' E 023°37'1 1.4
2017-Apr-21 08:30N 37°56' E 023°38'1 1.4
2017-Apr-21 08:01N 37°56' E 023°37'0 0.0
2017-Apr-21 07:30N 37°56' E 023°37'0 0.0
2017-Apr-21 07:01N 37°56' E 023°37'0 0.0
2017-Apr-21 06:31N 37°56' E 023°37'0 0.0
2017-Apr-21 06:01N 37°56' E 023°37'0 0.0
2017-Apr-21 05:31N 37°56' E 023°37'0 0.0
2017-Apr-21 05:01N 37°56' E 023°37'0 0.0
2017-Apr-21 04:31N 37°56' E 023°37'0 0.0
2017-Apr-21 04:00N 37°56' E 023°37'0 0.0
2017-Apr-21 03:30N 37°56' E 023°37'0 0.0
2017-Apr-21 03:00N 37°56' E 023°37'0 0.0
2017-Apr-21 02:30N 37°56' E 023°37'2 4.2
2017-Apr-21 02:00N 37°54' E 023°38'510.6
2017-Apr-21 01:31N 37°49' E 023°40'510.6
2017-Apr-21 01:01N 37°44' E 023°43'510.7
2017-Apr-21 00:30N 37°39' E 023°46'3 0.4
2017-Apr-20 15:38N 37°39' E 023°42'110.9
2017-Apr-20 15:30N 37°41' E 023°41'510.7
2017-Apr-20 15:00N 37°46' E 023°39'611.0
2017-Apr-20 14:31N 37°51' E 023°37'5 5.5
2017-Apr-20 13:31N 37°56' E 023°38'0 0.0
2017-Apr-20 13:01N 37°56' E 023°38'3 5.5
2017-Apr-20 12:31N 37°57' E 023°35'1 1.9
2017-Apr-20 12:00N 37°57' E 023°36'1 1.3
2017-Apr-20 11:31N 37°57' E 023°35'0 0.1
2017-Apr-20 11:01N 37°57' E 023°35'1 1.0
2017-Apr-20 10:31N 37°57' E 023°36'1 1.5
2017-Apr-20 10:01N 37°56' E 023°36'1 2.5
2017-Apr-20 09:30N 37°57' E 023°35'2 3.4
2017-Apr-20 09:01N 37°56' E 023°36'1 1.1
2017-Apr-20 08:30N 37°56' E 023°36'1 2.5
2017-Apr-20 08:01N 37°56' E 023°37'0 0.2
2017-Apr-20 07:30N 37°56' E 023°37'0 0.0
2017-Apr-20 07:00N 37°56' E 023°37'0 0.0
2017-Apr-20 06:30N 37°56' E 023°37'0 0.0
2017-Apr-20 06:00N 37°56' E 023°37'0 0.0
2017-Apr-20 05:31N 37°56' E 023°37'0 0.0
2017-Apr-20 05:01N 37°56' E 023°37'0 0.0
2017-Apr-20 04:30N 37°56' E 023°37'1 1.3
2017-Apr-20 04:01N 37°56' E 023°38'1 1.3
2017-Apr-20 03:31N 37°56' E 023°37'0 0.0
2017-Apr-20 03:01N 37°56' E 023°37'0 0.0
2017-Apr-20 02:30N 37°56' E 023°37'  

Dump ship's entire track history